createdAt,value
2022-11-15T00:02:12.240Z,7.47
2022-11-15T00:04:58.477Z,7.93
2022-11-15T00:08:00.059Z,8.70
2022-11-15T00:10:57.456Z,7.80
2022-11-15T00:13:43.509Z,7.27
2022-11-15T00:16:30.141Z,8.27
2022-11-15T00:19:16.572Z,8.00
2022-11-15T00:22:02.879Z,7.93
2022-11-15T00:24:49.192Z,7.37
2022-11-15T00:27:36.965Z,7.20
2022-11-15T00:30:23.369Z,7.20
2022-11-15T00:33:11.391Z,7.10
2022-11-15T00:36:01.910Z,7.80
2022-11-15T00:38:48.035Z,7.27
2022-11-15T00:41:34.302Z,6.90
2022-11-15T00:44:22.038Z,7.43
2022-11-15T00:47:08.061Z,7.97
2022-11-15T00:49:54.264Z,7.23
2022-11-15T00:52:40.712Z,6.70
2022-11-15T00:55:27.070Z,7.13
2022-11-15T00:58:13.459Z,5.97
2022-11-15T01:01:09.677Z,7.10
2022-11-15T01:04:00.080Z,7.37
2022-11-15T01:06:47.781Z,6.63
2022-11-15T01:09:34.078Z,6.60
2022-11-15T01:12:20.460Z,7.33
2022-11-15T01:15:07.511Z,7.60
2022-11-15T01:17:55.819Z,6.77
2022-11-15T01:20:43.098Z,7.40
2022-11-15T01:23:29.385Z,6.73
2022-11-15T01:26:17.228Z,6.40
2022-11-15T01:29:03.515Z,6.73
2022-11-15T01:31:49.649Z,6.70
2022-11-15T01:34:37.668Z,7.17
2022-11-15T01:37:23.963Z,7.27
2022-11-15T01:40:11.295Z,7.03
2022-11-15T01:42:57.937Z,7.90
2022-11-15T01:45:52.675Z,6.40
2022-11-15T01:48:38.835Z,6.60
2022-11-15T01:51:30.628Z,6.77
2022-11-15T01:54:21.381Z,7.80
2022-11-15T01:57:11.808Z,6.40
2022-11-15T01:59:59.452Z,6.70
2022-11-15T02:02:45.790Z,6.40
2022-11-15T02:05:32.627Z,7.10
2022-11-15T02:08:21.708Z,5.60
2022-11-15T02:11:10.191Z,6.40
2022-11-15T02:13:57.083Z,5.60
2022-11-15T02:16:57.019Z,6.20
2022-11-15T02:20:10.756Z,5.83
2022-11-15T02:23:11.569Z,5.87
2022-11-15T02:26:18.159Z,6.07
2022-11-15T02:29:09.706Z,6.80
2022-11-15T02:32:03.760Z,6.10
2022-11-15T02:34:57.098Z,6.60
2022-11-15T02:37:49.721Z,5.90
2022-11-15T02:40:42.954Z,7.17
2022-11-15T02:43:50.904Z,6.30
2022-11-15T02:46:58.628Z,6.27
2022-11-15T02:49:49.116Z,7.33
2022-11-15T02:52:35.635Z,7.33
2022-11-15T02:55:30.457Z,6.83
2022-11-15T02:58:41.021Z,6.47
2022-11-15T03:01:40.634Z,7.10
2022-11-15T03:04:37.810Z,6.73
2022-11-15T03:07:31.482Z,7.30
2022-11-15T03:10:26.319Z,7.10
2022-11-15T03:13:21.912Z,7.90
2022-11-15T03:16:16.588Z,5.97
2022-11-15T03:19:08.815Z,6.87
2022-11-15T03:21:57.298Z,7.23
2022-11-15T03:24:47.338Z,6.53
2022-11-15T03:27:37.988Z,7.57
2022-11-15T03:30:24.388Z,7.90
2022-11-15T03:33:12.644Z,6.70
2022-11-15T03:35:59.825Z,6.70
2022-11-15T03:38:46.946Z,6.53
2022-11-15T03:41:41.795Z,6.47
2022-11-15T03:44:39.208Z,7.10
2022-11-15T03:47:30.447Z,7.07
2022-11-15T03:50:20.089Z,6.77
2022-11-15T03:53:06.447Z,6.47
2022-11-15T03:55:52.536Z,7.17
2022-11-15T03:58:40.020Z,6.13
2022-11-15T04:01:26.506Z,6.87
2022-11-15T04:04:12.781Z,6.00
2022-11-15T04:06:59.192Z,6.20
2022-11-15T04:10:03.272Z,6.60
2022-11-15T04:12:49.630Z,6.10
2022-11-15T04:15:37.538Z,6.07
2022-11-15T04:18:25.233Z,6.70
2022-11-15T04:21:29.642Z,5.53
2022-11-15T04:24:15.972Z,6.07
2022-11-15T04:27:02.487Z,5.70
2022-11-15T04:29:48.534Z,6.27
2022-11-15T04:32:36.360Z,6.10
2022-11-15T04:35:22.687Z,6.17
2022-11-15T04:38:10.963Z,5.67
2022-11-15T04:40:57.486Z,5.97
2022-11-15T04:43:43.791Z,5.33
2022-11-15T04:46:30.554Z,5.70
2022-11-15T04:49:18.247Z,6.00
2022-11-15T04:52:04.956Z,6.63
2022-11-15T04:54:51.386Z,6.23
2022-11-15T04:57:38.338Z,5.43
2022-11-15T05:00:24.490Z,6.50
2022-11-15T05:03:29.286Z,6.53
2022-11-15T05:06:17.298Z,6.90
2022-11-15T05:09:04.007Z,7.20
2022-11-15T05:11:50.367Z,6.63
2022-11-15T05:14:36.847Z,6.03
2022-11-15T05:17:22.921Z,6.33
2022-11-15T05:20:10.141Z,6.10
2022-11-15T05:22:57.692Z,5.83
2022-11-15T05:25:43.527Z,6.77
2022-11-15T05:28:30.394Z,7.13
2022-11-15T05:31:17.717Z,8.30
2022-11-15T05:34:06.617Z,6.20
2022-11-15T05:36:52.720Z,7.30
2022-11-15T05:39:40.519Z,7.10
2022-11-15T05:42:28.758Z,6.70
2022-11-15T05:45:15.488Z,6.60
2022-11-15T05:48:06.344Z,7.57
2022-11-15T05:50:53.924Z,7.40
2022-11-15T05:53:40.602Z,7.30
2022-11-15T05:56:28.526Z,7.20
2022-11-15T05:59:15.320Z,6.90
2022-11-15T06:02:02.155Z,6.27
2022-11-15T06:04:48.461Z,7.70
2022-11-15T06:07:34.757Z,6.20
2022-11-15T06:10:20.932Z,5.80
2022-11-15T06:13:08.409Z,6.27
2022-11-15T06:15:57.487Z,5.93
2022-11-15T06:18:43.938Z,5.83
2022-11-15T06:21:30.446Z,5.13
2022-11-15T06:24:16.510Z,5.20
2022-11-15T06:27:02.785Z,5.00
2022-11-15T06:29:50.275Z,5.07
2022-11-15T06:32:36.402Z,6.40
2022-11-15T06:35:22.505Z,3.80
2022-11-15T06:38:10.766Z,4.20
2022-11-15T06:40:56.764Z,3.83
2022-11-15T06:43:43.455Z,3.90
2022-11-15T06:46:31.318Z,4.70
2022-11-15T06:49:18.060Z,3.40
2022-11-15T06:52:04.471Z,3.50
2022-11-15T06:54:50.971Z,3.80
2022-11-15T06:57:37.817Z,3.90
2022-11-15T07:00:24.150Z,3.43
2022-11-15T07:03:11.936Z,4.00
2022-11-15T07:06:06.603Z,3.63
2022-11-15T07:08:53.538Z,3.27
2022-11-15T07:11:39.988Z,3.43
2022-11-15T07:14:26.202Z,3.50
2022-11-15T07:17:12.508Z,3.40
2022-11-15T07:19:59.921Z,3.10
2022-11-15T07:22:46.847Z,3.20
2022-11-15T07:25:33.612Z,2.60
2022-11-15T07:28:20.030Z,3.23
2022-11-15T07:31:07.781Z,2.93
2022-11-15T07:33:53.836Z,3.10
2022-11-15T07:36:41.197Z,3.53
2022-11-15T07:39:27.377Z,2.60
2022-11-15T07:42:31.250Z,3.30
2022-11-15T07:45:17.634Z,2.80
2022-11-15T07:48:03.761Z,2.70
2022-11-15T07:50:50.228Z,2.67
2022-11-15T07:53:37.678Z,2.57
2022-11-15T07:56:23.803Z,2.73
2022-11-15T07:59:10.463Z,2.80
2022-11-15T08:01:56.852Z,2.53
2022-11-15T08:04:42.899Z,2.80
2022-11-15T08:07:31.230Z,3.10
2022-11-15T08:10:20.031Z,2.80
2022-11-15T08:13:08.296Z,2.23
2022-11-15T08:16:00.125Z,2.57
2022-11-15T08:18:46.268Z,1.97
2022-11-15T08:21:32.763Z,2.43
2022-11-15T08:24:18.869Z,1.73
2022-11-15T08:27:15.783Z,2.10
2022-11-15T08:30:02.495Z,2.03
2022-11-15T08:32:48.976Z,1.63
2022-11-15T08:35:35.238Z,2.07
2022-11-15T08:38:21.551Z,2.33
2022-11-15T08:41:07.997Z,2.10
2022-11-15T08:43:55.493Z,2.10
2022-11-15T08:46:41.721Z,1.80
2022-11-15T08:49:27.867Z,1.63
2022-11-15T08:52:13.993Z,2.50
2022-11-15T08:55:00.427Z,1.80
2022-11-15T08:57:46.894Z,1.77
2022-11-15T09:00:34.848Z,1.70
2022-11-15T09:03:21.363Z,2.40
2022-11-15T09:06:07.987Z,1.33
2022-11-15T09:08:54.256Z,1.50
2022-11-15T09:11:40.980Z,1.63
2022-11-15T09:14:27.483Z,1.67
2022-11-15T09:17:14.827Z,1.50
2022-11-15T09:20:01.063Z,1.60
2022-11-15T09:22:47.385Z,1.47
2022-11-15T09:25:34.279Z,2.30
2022-11-15T09:28:20.884Z,1.77
2022-11-15T09:31:08.008Z,1.50
2022-11-15T09:33:55.908Z,1.90
2022-11-15T09:36:42.046Z,1.50
2022-11-15T09:39:28.626Z,1.80
2022-11-15T09:42:27.790Z,1.60
2022-11-15T09:45:22.402Z,1.27
2022-11-15T09:48:47.536Z,1.80
2022-11-15T09:51:47.632Z,1.63
2022-11-15T09:57:19.465Z,1.43
2022-11-15T09:59:57.240Z,1.40
2022-11-15T10:02:52.776Z,1.40
2022-11-15T10:05:24.191Z,1.50
2022-11-15T10:08:01.655Z,1.47
2022-11-15T10:10:35.754Z,1.50
2022-11-15T10:13:05.211Z,1.30
2022-11-15T10:15:33.623Z,1.20
2022-11-15T10:18:10.819Z,1.10
2022-11-15T10:20:48.125Z,1.23
2022-11-15T10:23:19.693Z,1.00
2022-11-15T10:25:47.581Z,1.20
2022-11-15T10:28:18.501Z,1.70
2022-11-15T10:30:49.245Z,1.10
2022-11-15T10:33:27.237Z,1.30
2022-11-15T10:36:25.576Z,1.20
2022-11-15T10:38:56.833Z,1.30
2022-11-15T10:41:32.613Z,1.37
2022-11-15T10:44:12.774Z,1.30
2022-11-15T10:46:47.260Z,1.47
2022-11-15T10:49:17.246Z,1.33
2022-11-15T10:51:48.732Z,1.03
2022-11-15T10:54:25.344Z,1.30
2022-11-15T10:56:55.444Z,1.30
2022-11-15T10:59:26.701Z,1.13
2022-11-15T11:01:54.668Z,1.00
2022-11-15T11:04:22.643Z,1.40
2022-11-15T11:06:52.226Z,1.00
2022-11-15T11:09:35.014Z,1.10
2022-11-15T11:12:03.521Z,1.20
2022-11-15T11:14:33.056Z,1.17
2022-11-15T11:17:08.023Z,0.90
2022-11-15T11:20:02.099Z,1.30
2022-11-15T11:22:40.413Z,0.87
2022-11-15T11:25:20.697Z,1.30
2022-11-15T11:28:01.283Z,1.60
2022-11-15T11:30:42.785Z,0.90
2022-11-15T11:33:18.447Z,1.00
2022-11-15T11:36:01.684Z,1.10
2022-11-15T11:38:58.895Z,0.90
2022-11-15T11:41:45.113Z,0.80
2022-11-15T11:44:26.171Z,1.30
2022-11-15T11:46:58.453Z,1.00
2022-11-15T11:49:32.847Z,1.30
2022-11-15T11:52:07.539Z,1.60
2022-11-15T11:54:44.413Z,0.83
2022-11-15T11:57:19.328Z,0.90
2022-11-15T11:59:52.150Z,1.10
2022-11-15T12:02:27.261Z,1.27
2022-11-15T12:05:03.462Z,1.00
2022-11-15T12:07:34.980Z,0.90
2022-11-15T12:10:07.020Z,1.10
2022-11-15T12:12:43.404Z,1.00
2022-11-15T12:15:16.161Z,1.10
2022-11-15T12:17:44.585Z,0.90
2022-11-15T12:20:18.747Z,1.10
2022-11-15T12:22:54.064Z,1.30
2022-11-15T12:25:27.547Z,0.90
2022-11-15T12:28:00.681Z,0.90
2022-11-15T12:30:39.848Z,0.80
2022-11-15T12:33:27.633Z,1.10
2022-11-15T12:36:01.024Z,1.20
2022-11-15T12:38:55.597Z,1.00
2022-11-15T12:41:25.054Z,1.10
2022-11-15T12:43:54.316Z,1.13
2022-11-15T12:47:03.611Z,1.10
2022-11-15T12:49:46.423Z,1.37
2022-11-15T12:52:14.273Z,1.20
2022-11-15T12:55:00.170Z,1.10
2022-11-15T12:57:40.735Z,0.97
2022-11-15T13:00:45.743Z,1.30
2022-11-15T13:03:58.940Z,1.00
2022-11-15T13:06:40.947Z,1.00
2022-11-15T13:09:42.397Z,1.13
2022-11-15T13:12:14.536Z,1.10
2022-11-15T13:14:52.081Z,0.93
2022-11-15T13:17:40.954Z,1.00
2022-11-15T13:20:24.213Z,1.30
2022-11-15T13:22:55.501Z,1.10
2022-11-15T13:25:43.005Z,1.23
2022-11-15T13:28:22.190Z,0.90
2022-11-15T13:30:55.353Z,1.07
2022-11-15T13:33:29.308Z,1.00
2022-11-15T13:36:05.565Z,1.00
2022-11-15T13:38:35.888Z,1.10
2022-11-15T13:41:16.376Z,0.80
2022-11-15T13:43:44.754Z,1.20
2022-11-15T13:46:15.675Z,1.23
2022-11-15T13:48:45.053Z,1.20
2022-11-15T13:51:20.884Z,1.33
2022-11-15T13:53:52.889Z,1.17
2022-11-15T13:56:22.525Z,0.90
2022-11-15T13:58:50.658Z,1.00
2022-11-15T14:01:21.751Z,1.03
2022-11-15T14:03:53.526Z,1.30
2022-11-15T14:06:24.494Z,1.30
2022-11-15T14:09:31.183Z,1.23
2022-11-15T14:11:59.373Z,1.40
2022-11-15T14:14:28.509Z,1.10
2022-11-15T14:16:57.912Z,1.10
2022-11-15T14:19:40.698Z,2.13
2022-11-15T14:22:22.675Z,1.73
2022-11-15T14:25:07.666Z,1.70
2022-11-15T14:27:36.533Z,1.87
2022-11-15T14:30:05.667Z,1.73
2022-11-15T14:32:43.719Z,1.90
2022-11-15T14:35:17.083Z,2.00
2022-11-15T14:37:46.770Z,1.70
2022-11-15T14:40:17.139Z,1.83
2022-11-15T14:42:46.419Z,2.27
2022-11-15T14:45:15.918Z,2.40
2022-11-15T14:47:43.983Z,1.77
2022-11-15T14:50:16.371Z,2.00
2022-11-15T14:52:46.287Z,2.23
2022-11-15T14:55:20.488Z,2.30
2022-11-15T14:57:48.929Z,2.10
2022-11-15T15:00:18.248Z,2.00
2022-11-15T15:02:47.719Z,2.33
2022-11-15T15:05:18.356Z,2.60
2022-11-15T15:07:48.359Z,2.70
2022-11-15T15:10:39.039Z,2.30
2022-11-15T15:13:05.915Z,3.17
2022-11-15T15:15:36.319Z,2.60
2022-11-15T15:18:05.508Z,2.17
2022-11-15T15:20:33.519Z,2.00
2022-11-15T15:23:02.789Z,2.60
2022-11-15T15:25:32.895Z,2.50
2022-11-15T15:28:01.453Z,2.80
2022-11-15T15:30:32.305Z,2.37
2022-11-15T15:33:00.291Z,2.67
2022-11-15T15:35:32.313Z,2.37
2022-11-15T15:38:00.562Z,2.13
2022-11-15T15:40:31.317Z,2.17
2022-11-15T15:42:59.306Z,2.10
2022-11-15T15:45:28.230Z,2.10
2022-11-15T15:47:56.564Z,2.60
2022-11-15T15:50:27.041Z,2.63
2022-11-15T15:52:58.380Z,1.83
2022-11-15T15:55:26.695Z,2.37
2022-11-15T15:57:56.200Z,2.00
2022-11-15T16:00:25.775Z,2.23
2022-11-15T16:02:54.499Z,2.37
2022-11-15T16:05:23.118Z,2.37
2022-11-15T16:07:50.803Z,2.10
2022-11-15T16:10:25.766Z,2.13
2022-11-15T16:12:55.751Z,2.67
2022-11-15T16:15:25.468Z,1.80
2022-11-15T16:17:54.968Z,2.30
2022-11-15T16:20:36.386Z,2.50
2022-11-15T16:23:09.031Z,2.23
2022-11-15T16:25:41.775Z,2.80
2022-11-15T16:28:18.993Z,2.13
2022-11-15T16:30:49.005Z,2.10
2022-11-15T16:33:21.200Z,2.00
2022-11-15T16:35:49.346Z,2.30
2022-11-15T16:38:18.018Z,2.27
2022-11-15T16:40:46.003Z,2.40
2022-11-15T16:43:15.061Z,1.80
2022-11-15T16:45:42.809Z,2.23
2022-11-15T16:48:22.694Z,2.73
2022-11-15T16:50:50.575Z,2.53
2022-11-15T16:53:18.471Z,3.40
2022-11-15T16:55:46.199Z,2.83
2022-11-15T16:58:15.234Z,2.63
2022-11-15T17:00:43.044Z,2.33
2022-11-15T17:03:10.827Z,2.50
2022-11-15T17:05:38.610Z,2.73
2022-11-15T17:08:06.436Z,2.20
2022-11-15T17:10:34.200Z,2.30
2022-11-15T17:13:01.879Z,1.70
2022-11-15T17:15:30.894Z,1.83
2022-11-15T17:17:58.521Z,1.90
2022-11-15T17:20:26.734Z,1.70
2022-11-15T17:22:54.631Z,2.50
2022-11-15T17:25:22.323Z,1.90
2022-11-15T17:27:50.035Z,2.00
2022-11-15T17:30:18.684Z,1.57
2022-11-15T17:32:48.076Z,1.90
2022-11-15T17:35:16.184Z,2.07
2022-11-15T17:37:44.200Z,2.27
2022-11-15T17:40:12.613Z,1.80
2022-11-15T17:42:42.251Z,1.83
2022-11-15T17:45:11.715Z,1.80
2022-11-15T17:47:39.459Z,1.97
2022-11-15T17:50:09.226Z,2.03
2022-11-15T17:52:36.910Z,2.00
2022-11-15T17:55:05.091Z,2.20
2022-11-15T17:57:32.721Z,2.10
2022-11-15T18:00:00.388Z,1.80
2022-11-15T18:02:28.011Z,1.93
2022-11-15T18:04:55.716Z,2.00
2022-11-15T18:07:24.745Z,2.30
2022-11-15T18:09:53.627Z,2.40
2022-11-15T18:12:21.370Z,2.57
2022-11-15T18:14:48.958Z,1.90
2022-11-15T18:17:18.902Z,1.87
2022-11-15T18:19:47.735Z,2.20
2022-11-15T18:22:15.466Z,2.10
2022-11-15T18:24:44.860Z,2.10
2022-11-15T18:27:12.521Z,2.07
2022-11-15T18:29:40.227Z,2.20
2022-11-15T18:32:12.355Z,2.27
2022-11-15T18:34:40.253Z,2.20
2022-11-15T18:37:08.398Z,2.40
2022-11-15T18:39:36.077Z,2.50
2022-11-15T18:42:05.670Z,2.13
2022-11-15T18:44:33.427Z,2.00
2022-11-15T18:47:02.454Z,2.10
2022-11-15T18:49:30.423Z,2.37
2022-11-15T18:51:58.176Z,2.83
2022-11-15T18:54:31.091Z,2.13
2022-11-15T18:56:59.767Z,2.23
2022-11-15T18:59:33.937Z,2.47
2022-11-15T19:02:02.339Z,2.50
2022-11-15T19:04:30.432Z,2.90
2022-11-15T19:06:58.105Z,3.00
2022-11-15T19:09:32.505Z,3.67
2022-11-15T19:12:00.493Z,3.33
2022-11-15T19:14:29.670Z,3.17
2022-11-15T19:16:57.394Z,3.10
2022-11-15T19:19:28.125Z,3.10
2022-11-15T19:21:57.176Z,3.03
2022-11-15T19:24:26.320Z,3.00
2022-11-15T19:26:54.788Z,3.60
2022-11-15T19:29:22.457Z,2.63
2022-11-15T19:31:51.458Z,2.60
2022-11-15T19:34:19.199Z,2.70
2022-11-15T19:36:47.062Z,2.97
2022-11-15T19:39:18.039Z,2.60
2022-11-15T19:41:46.426Z,2.77
2022-11-15T19:44:14.588Z,2.93
2022-11-15T19:46:44.170Z,2.70
2022-11-15T19:49:13.554Z,3.20
2022-11-15T19:51:42.625Z,2.60
2022-11-15T19:54:10.898Z,2.53
2022-11-15T19:56:40.413Z,3.20
2022-11-15T19:59:08.830Z,2.80
2022-11-15T20:01:38.836Z,2.83
2022-11-15T20:04:07.864Z,2.60
2022-11-15T20:06:39.372Z,3.33
2022-11-15T20:09:07.306Z,3.10
2022-11-15T20:11:37.785Z,2.80
2022-11-15T20:14:06.441Z,2.90
2022-11-15T20:16:34.396Z,2.40
2022-11-15T20:19:02.302Z,2.80
2022-11-15T20:21:29.932Z,2.57
2022-11-15T20:23:58.941Z,3.27
2022-11-15T20:26:26.575Z,2.93
2022-11-15T20:29:00.864Z,3.00
2022-11-15T20:31:29.430Z,3.13
2022-11-15T20:33:57.165Z,3.00
2022-11-15T20:36:24.899Z,2.63
2022-11-15T20:38:52.679Z,3.53
2022-11-15T20:41:21.692Z,2.53
2022-11-15T20:43:49.377Z,3.03
2022-11-15T20:46:17.266Z,4.70
2022-11-15T20:48:45.082Z,3.30
2022-11-15T20:51:15.515Z,2.93
2022-11-15T20:53:43.551Z,3.17
2022-11-15T20:56:13.547Z,3.37
2022-11-15T20:58:43.328Z,3.00
2022-11-15T21:01:14.156Z,3.60
2022-11-15T21:03:42.079Z,3.70
2022-11-15T21:06:09.851Z,4.20
2022-11-15T21:08:51.917Z,4.00
2022-11-15T21:11:36.997Z,3.80
2022-11-15T21:14:09.238Z,4.33
2022-11-15T21:16:37.399Z,3.87
2022-11-15T21:19:05.523Z,3.73
2022-11-15T21:21:33.329Z,3.27
2022-11-15T21:24:03.114Z,3.60
2022-11-15T21:26:30.791Z,3.90
2022-11-15T21:28:58.679Z,3.50
2022-11-15T21:31:27.911Z,3.53
2022-11-15T21:33:55.639Z,3.50
2022-11-15T21:36:24.970Z,3.53
2022-11-15T21:38:53.541Z,2.77
2022-11-15T21:41:21.360Z,3.10
2022-11-15T21:43:49.051Z,3.33
2022-11-15T21:46:16.724Z,2.97
2022-11-15T21:48:45.709Z,2.57
2022-11-15T21:51:13.764Z,3.60
2022-11-15T21:53:42.119Z,2.87
2022-11-15T21:56:11.786Z,3.17
2022-11-15T21:58:39.646Z,3.60
2022-11-15T22:01:25.829Z,3.30
2022-11-15T22:03:55.004Z,3.70
2022-11-15T22:06:22.701Z,2.70
2022-11-15T22:08:50.313Z,3.67
2022-11-15T22:11:17.976Z,2.93
2022-11-15T22:13:45.681Z,3.23
2022-11-15T22:16:13.596Z,2.97
2022-11-15T22:18:41.317Z,2.57
2022-11-15T22:21:12.994Z,2.90
2022-11-15T22:23:41.551Z,2.70
2022-11-15T22:26:12.662Z,3.00
2022-11-15T22:28:40.396Z,2.60
2022-11-15T22:31:08.762Z,3.23
2022-11-15T22:33:36.986Z,2.57
2022-11-15T22:36:06.515Z,3.20
2022-11-15T22:38:36.000Z,3.23
2022-11-15T22:41:04.092Z,3.43
2022-11-15T22:43:31.950Z,3.10
2022-11-15T22:46:01.217Z,2.90
2022-11-15T22:48:30.258Z,3.17
2022-11-15T22:50:58.252Z,2.87
2022-11-15T22:53:26.387Z,3.60
2022-11-15T22:55:57.126Z,3.07
2022-11-15T22:58:26.786Z,3.27
2022-11-15T23:00:57.055Z,2.67
2022-11-15T23:03:25.720Z,2.83
2022-11-15T23:05:53.733Z,3.57
2022-11-15T23:08:23.691Z,3.67
2022-11-15T23:11:08.874Z,3.33
2022-11-15T23:13:38.004Z,3.43
2022-11-15T23:16:25.105Z,3.10
2022-11-15T23:18:54.458Z,3.37
2022-11-15T23:21:41.611Z,3.60
2022-11-15T23:24:11.230Z,3.40
2022-11-15T23:26:39.384Z,3.53
2022-11-15T23:29:10.267Z,3.60
2022-11-15T23:32:01.675Z,4.00
2022-11-15T23:34:30.684Z,3.40
2022-11-15T23:36:58.739Z,4.20
2022-11-15T23:39:26.483Z,3.90
2022-11-15T23:41:54.177Z,4.00
2022-11-15T23:44:23.567Z,3.70
2022-11-15T23:46:51.517Z,4.73
2022-11-15T23:49:19.177Z,4.67
2022-11-15T23:51:47.574Z,3.70
2022-11-15T23:54:15.222Z,3.60
2022-11-15T23:56:42.909Z,3.90
2022-11-15T23:59:10.538Z,4.00
